Time;durP1;ratioP1;P1;durP2;ratioP2;P2;SDS_P1;SDS_P2;PMS_P1;PMS_P2;Temp;Humidity;BMP_temperature;BMP_pressure;BME280_temperature;BME280_humidity;BME280_pressure;Samples;Min_cycle;Max_cycle;Signal;HPM_P1;HPM_P2
2022/12/30 00:01:06;;;;;;;;;;;;;;;;;;5357236;23;19910;-87
2022/12/30 00:03:32;;;;;;;;;;;;;;;;;;5017269;28;19961;-88
2022/12/30 00:05:58;;;;;;;;;;;;;;;;;;5014938;28;19937;-87
2022/12/30 00:08:46;;;;;;;;;;;;;;;;;;4985449;28;19969;-87
2022/12/30 00:11:17;;;;;;;;;;;;;;;;;;4979905;28;19922;-87
2022/12/30 00:33:32;;;;;;;;;;;;;;;;;;4980609;28;19973;-88
2022/12/30 00:36:03;;;;;;;;;;;;;;;;;;4980836;28;19906;-88
2022/12/30 00:38:42;;;;;;;;;;;;;;;;;;4981120;28;19921;-90
2022/12/30 00:44:02;;;;;;;;;;;;;;;;;;5549565;23;19922;-90
2022/12/30 00:46:37;;;;;;;;;;;;;;;;;;4967810;28;19918;-90
2022/12/30 00:57:51;;;;;;;;;;;;;;;;;;5005495;28;19902;-90
2022/12/30 01:00:31;;;;;;;;;;;;;;;;;;5253837;23;19929;-91
2022/12/30 01:03:07;;;;;;;;;;;;;;;;;;4991633;28;19912;-90
2022/12/30 01:05:33;;;;;;;;;;;;;;;;;;5005151;28;19929;-91
2022/12/30 01:08:06;;;;;;;;;;;;;;;;;;4989569;28;19921;-90
2022/12/30 01:10:43;;;;;;;;;;;;;;;;;;5005120;28;19917;-91
2022/12/30 01:13:12;;;;;;;;;;;;;;;;;;5004885;28;19905;-91
2022/12/30 01:15:44;;;;;;;;;;;;;;;;;;4988877;28;19929;-90
2022/12/30 01:18:17;;;;;;;;;;;;;;;;;;5005371;28;19937;-90
2022/12/30 01:20:46;;;;;;;;;;;;;;;;;;4988506;28;19917;-91
2022/12/30 01:23:12;;;;;;;;;;;;;;;;;;4988276;28;19913;-90
2022/12/30 01:25:38;;;;;;;;;;;;;;;;;;5322491;23;19926;-91
2022/12/30 01:28:18;;;;;;;;;;;;;;;;;;5037279;28;19926;-90
2022/12/30 01:30:48;;;;;;;;;;;;;;;;;;5024772;28;19908;-91
2022/12/30 01:33:20;;;;;;;;;;;;;;;;;;5134068;23;19989;-90
2022/12/30 01:35:49;;;;;;;;;;;;;;;;;;4988335;28;19902;-91
2022/12/30 01:38:22;;;;;;;;;;;;;;;;;;4989761;28;19924;-91
2022/12/30 01:40:54;;;;;;;;;;;;;;;;;;4985709;28;19908;-91
2022/12/30 01:43:40;;;;;;;;;;;;;;;;;;5231047;23;19926;-91
2022/12/30 01:46:15;;;;;;;;;;;;;;;;;;5011300;23;19917;-90
2022/12/30 01:48:47;;;;;;;;;;;;;;;;;;5043164;28;19901;-91
2022/12/30 01:51:26;;;;;;;;;;;;;;;;;;5008704;28;19897;-91
2022/12/30 01:54:12;;;;;;;;;;;;;;;;;;5024950;28;19924;-91
2022/12/30 01:56:53;;;;;;;;;;;;;;;;;;5123534;23;19929;-90
2022/12/30 01:59:31;;;;;;;;;;;;;;;;;;5005104;28;19916;-90
2022/12/30 02:01:57;;;;;;;;;;;;;;;;;;4987576;28;19945;-90
2022/12/30 02:04:22;;;;;;;;;;;;;;;;;;4986979;28;19902;-90
2022/12/30 02:06:54;;;;;;;;;;;;;;;;;;4987428;28;19953;-89
2022/12/30 02:09:20;;;;;;;;;;;;;;;;;;4987176;28;19914;-89
2022/12/30 02:11:46;;;;;;;;;;;;;;;;;;5003279;28;19901;-90
2022/12/30 02:14:27;;;;;;;;;;;;;;;;;;5019480;28;19906;-90
2022/12/30 02:16:56;;;;;;;;;;;;;;;;;;4988718;28;19901;-90
2022/12/30 02:19:25;;;;;;;;;;;;;;;;;;4987736;28;19910;-89
2022/12/30 02:21:56;;;;;;;;;;;;;;;;;;4988392;28;19985;-89
2022/12/30 02:27:22;;;;;;;;;;;;;;;;;;5049903;23;19945;-88
2022/12/30 02:29:54;;;;;;;;;;;;;;;;;;4986563;28;19933;-90
2022/12/30 02:32:25;;;;;;;;;;;;;;;;;;4986326;28;19921;-90
2022/12/30 02:34:56;;;;;;;;;;;;;;;;;;4987357;28;19898;-89
2022/12/30 02:37:26;;;;;;;;;;;;;;;;;;4986406;28;19918;-89
2022/12/30 02:39:57;;;;;;;;;;;;;;;;;;4986568;28;19929;-90
2022/12/30 02:45:13;;;;;;;;;;;;;;;;;;5002326;28;19918;-90
2022/12/30 02:47:51;;;;;;;;;;;;;;;;;;4987733;28;19921;-90
2022/12/30 02:53:34;;;;;;;;;;;;;;;;;;5018681;28;19906;-91
2022/12/30 02:56:17;;;;;;;;;;;;;;;;;;5002175;28;19944;-90
2022/12/30 02:58:48;;;;;;;;;;;;;;;;;;4988103;28;19902;-90
2022/12/30 03:04:01;;;;;;;;;;;;;;;;;;5018507;28;19936;-90
2022/12/30 03:09:04;;;;;;;;;;;;;;;;;;5017912;28;19926;-90
2022/12/30 03:11:37;;;;;;;;;;;;;;;;;;4987353;28;19918;-92
2022/12/30 03:14:13;;;;;;;;;;;;;;;;;;4988328;28;19965;-91
2022/12/30 03:16:51;;;;;;;;;;;;;;;;;;4986086;28;19902;-90
2022/12/30 03:19:21;;;;;;;;;;;;;;;;;;5603846;22;20798;-88
2022/12/30 03:21:49;;;;;;;;;;;;;;;;;;4986169;28;19945;-89
2022/12/30 03:32:31;;;;;;;;;;;;;;;;;;5400457;23;19926;-90
2022/12/30 03:35:14;;;;;;;;;;;;;;;;;;4984874;28;19902;-90
2022/12/30 03:37:44;;;;;;;;;;;;;;;;;;5260189;23;19909;-90
2022/12/30 03:40:10;;;;;;;;;;;;;;;;;;5029735;28;19909;-92
2022/12/30 03:42:38;;;;;;;;;;;;;;;;;;5021503;28;19981;-91
2022/12/30 03:45:06;;;;;;;;;;;;;;;;;;5006573;28;19902;-90
2022/12/30 03:47:32;;;;;;;;;;;;;;;;;;5021870;28;19929;-90
2022/12/30 03:49:58;;;;;;;;;;;;;;;;;;5021726;28;19925;-91
2022/12/30 03:52:32;;;;;;;;;;;;;;;;;;6105854;22;20023;-88
2022/12/30 03:57:50;;;;;;;;;;;;;;;;;;5303409;23;19921;-90
2022/12/30 04:00:45;;;;;;;;;;;;;;;;;;5001756;28;19926;-88
2022/12/30 04:03:15;;;;;;;;;;;;;;;;;;4986040;28;19898;-88
2022/12/30 04:05:45;;;;;;;;;;;;;;;;;;4985879;28;19909;-89
2022/12/30 04:08:18;;;;;;;;;;;;;;;;;;4986354;28;19894;-88
2022/12/30 04:10:48;;;;;;;;;;;;;;;;;;4985046;28;19937;-89
2022/12/30 04:13:21;;;;;;;;;;;;;;;;;;4984682;28;19924;-90
2022/12/30 04:15:52;;;;;;;;;;;;;;;;;;4984568;28;19990;-90
2022/12/30 04:18:26;;;;;;;;;;;;;;;;;;4986171;28;19904;-90
2022/12/30 04:20:54;;;;;;;;;;;;;;;;;;4985940;28;19926;-90
2022/12/30 04:26:20;;;;;;;;;;;;;;;;;;5016877;28;19926;-89
2022/12/30 04:28:51;;;;;;;;;;;;;;;;;;5005101;28;19917;-90
2022/12/30 04:31:20;;;;;;;;;;;;;;;;;;4970184;28;19909;-91
2022/12/30 04:33:50;;;;;;;;;;;;;;;;;;4969668;28;19926;-90
2022/12/30 04:36:20;;;;;;;;;;;;;;;;;;4969708;28;19917;-90
2022/12/30 04:38:56;;;;;;;;;;;;;;;;;;4969621;28;20463;-88
2022/12/30 04:41:34;;;;;;;;;;;;;;;;;;4969561;28;20389;-90
2022/12/30 04:44:05;;;;;;;;;;;;;;;;;;4985189;28;19953;-90
2022/12/30 04:46:36;;;;;;;;;;;;;;;;;;4969573;28;19914;-88
2022/12/30 04:49:12;;;;;;;;;;;;;;;;;;4970700;28;19920;-90
2022/12/30 04:51:47;;;;;;;;;;;;;;;;;;4969602;28;19917;-90
2022/12/30 04:54:23;;;;;;;;;;;;;;;;;;4985730;28;19898;-91
2022/12/30 04:56:53;;;;;;;;;;;;;;;;;;4969863;28;19902;-90
2022/12/30 04:59:23;;;;;;;;;;;;;;;;;;4968995;28;19934;-90
2022/12/30 05:04:38;;;;;;;;;;;;;;;;;;5018982;28;19926;-90
2022/12/30 05:07:17;;;;;;;;;;;;;;;;;;4990646;28;19941;-91
2022/12/30 05:09:51;;;;;;;;;;;;;;;;;;4989573;28;19902;-91
2022/12/30 05:12:25;;;;;;;;;;;;;;;;;;4989065;28;19916;-89
2022/12/30 05:15:11;;;;;;;;;;;;;;;;;;5124037;22;19930;-88
2022/12/30 05:17:43;;;;;;;;;;;;;;;;;;5143084;23;19909;-90
2022/12/30 05:20:15;;;;;;;;;;;;;;;;;;5025174;28;19909;-90
2022/12/30 05:22:52;;;;;;;;;;;;;;;;;;5007816;28;19922;-90
2022/12/30 05:33:37;;;;;;;;;;;;;;;;;;5004262;28;19917;-91
2022/12/30 05:36:32;;;;;;;;;;;;;;;;;;5675943;22;19937;-89
2022/12/30 05:41:45;;;;;;;;;;;;;;;;;;5122647;22;19926;-88
2022/12/30 05:44:11;;;;;;;;;;;;;;;;;;5017791;28;19910;-89
2022/12/30 05:46:55;;;;;;;;;;;;;;;;;;5000676;28;19973;-90
2022/12/30 05:49:22;;;;;;;;;;;;;;;;;;4985604;28;19910;-88
2022/12/30 05:51:48;;;;;;;;;;;;;;;;;;4987125;28;19933;-90
2022/12/30 05:54:14;;;;;;;;;;;;;;;;;;5020601;28;19912;-90
2022/12/30 05:56:40;;;;;;;;;;;;;;;;;;5003955;28;19917;-88
2022/12/30 06:01:52;;;;;;;;;;;;;;;;;;5514585;23;19929;-89
2022/12/30 06:04:22;;;;;;;;;;;;;;;;;;4988141;28;19928;-88
2022/12/30 06:06:53;;;;;;;;;;;;;;;;;;5002957;28;19934;-87
2022/12/30 06:09:23;;;;;;;;;;;;;;;;;;5003689;28;19917;-89
2022/12/30 06:11:50;;;;;;;;;;;;;;;;;;4987482;28;19945;-88
2022/12/30 06:14:22;;;;;;;;;;;;;;;;;;5011372;22;21378;-88
2022/12/30 06:16:49;;;;;;;;;;;;;;;;;;5042186;28;19902;-89
2022/12/30 06:19:20;;;;;;;;;;;;;;;;;;5023283;28;19917;-88
2022/12/30 06:21:47;;;;;;;;;;;;;;;;;;5020428;28;19913;-89
2022/12/30 06:24:15;;;;;;;;;;;;;;;;;;5005177;28;19917;-88
2022/12/30 06:26:42;;;;;;;;;;;;;;;;;;5002044;28;19905;-89
2022/12/30 06:29:08;;;;;;;;;;;;;;;;;;5001090;28;19897;-88
2022/12/30 06:31:35;;;;;;;;;;;;;;;;;;5001596;28;19913;-89
2022/12/30 06:34:03;;;;;;;;;;;;;;;;;;5002241;28;19898;-89
2022/12/30 06:36:29;;;;;;;;;;;;;;;;;;5003692;28;20114;-88
2022/12/30 06:38:56;;;;;;;;;;;;;;;;;;5003621;28;19913;-89
2022/12/30 06:41:23;;;;;;;;;;;;;;;;;;5005376;28;19909;-88
2022/12/30 06:43:51;;;;;;;;;;;;;;;;;;5021027;28;20308;-88
2022/12/30 06:46:16;;;;;;;;;;;;;;;;;;5006769;28;19933;-89
2022/12/30 06:51:33;;;;;;;;;;;;;;;;;;5012423;28;19917;-88
2022/12/30 06:54:06;;;;;;;;;;;;;;;;;;4999008;28;20394;-89
2022/12/30 06:56:32;;;;;;;;;;;;;;;;;;4983006;28;19914;-89
2022/12/30 06:59:01;;;;;;;;;;;;;;;;;;4981884;28;19902;-89
2022/12/30 07:01:27;;;;;;;;;;;;;;;;;;4981541;28;19977;-89
2022/12/30 07:20:22;;;;;;;;;;;;;;;;;;5297446;22;20060;-89
2022/12/30 07:22:48;;;;;;;;;;;;;;;;;;5018638;28;19902;-90
2022/12/30 07:25:13;;;;;;;;;;;;;;;;;;4985752;28;19969;-89
2022/12/30 07:27:39;;;;;;;;;;;;;;;;;;4986089;28;19917;-87
2022/12/30 07:30:08;;;;;;;;;;;;;;;;;;4987094;28;19961;-89
2022/12/30 07:32:34;;;;;;;;;;;;;;;;;;5002119;28;19921;-89
2022/12/30 07:40:23;;;;;;;;;;;;;;;;;;5924595;23;21181;-89
2022/12/30 07:51:03;;;;;;;;;;;;;;;;;;5197125;22;19910;-89
2022/12/30 08:09:40;;;;;;;;;;;;;;;;;;5111351;22;19914;-89
2022/12/30 08:28:15;;;;;;;;;;;;;;;;;;5625961;22;19953;-87
2022/12/30 08:44:41;;;;;;;;;;;;;;;;;;5443109;22;19932;-85
2022/12/30 08:47:09;;;;;;;;;;;;;;;;;;4999105;28;19981;-92
2022/12/30 08:49:50;;;;;;;;;;;;;;;;;;;;;
2022/12/30 09:00:23;;;;;;;;;;;;;;;;;;5000083;28;19910;-91
2022/12/30 09:03:01;;;;;;;;;;;;;;;;;;5505259;23;20014;-91
2022/12/30 09:05:28;;;;;;;;;;;;;;;;;;5219705;22;19924;-83
2022/12/30 09:08:06;;;;;;;;;;;;;;;;;;4985070;28;19914;-92
2022/12/30 09:10:39;;;;;;;;;;;;;;;;;;4984646;28;19898;-91
2022/12/30 09:13:04;;;;;;;;;;;;;;;;;;4998916;28;19934;-90
2022/12/30 09:15:30;;;;;;;;;;;;;;;;;;4999462;28;19918;-89
2022/12/30 09:18:01;;;;;;;;;;;;;;;;;;4983053;28;19973;-90
2022/12/30 09:20:29;;;;;;;;;;;;;;;;;;4984455;28;19937;-91
2022/12/30 09:22:57;;;;;;;;;;;;;;;;;;5001142;28;19899;-90
2022/12/30 09:25:26;;;;;;;;;;;;;;;;;;5346148;23;19940;-91
2022/12/30 09:27:51;;;;;;;;;;;;;;;;;;5054402;23;19910;-90
2022/12/30 09:30:19;;;;;;;;;;;;;;;;;;4984528;28;19902;-91
2022/12/30 09:32:45;;;;;;;;;;;;;;;;;;5074118;22;19936;-89
2022/12/30 09:35:10;;;;;;;;;;;;;;;;;;5078382;23;20219;-92
2022/12/30 09:37:38;;;;;;;;;;;;;;;;;;5042703;28;19901;-90
2022/12/30 09:40:15;;;;;;;;;;;;;;;;;;5032888;28;19917;-90
2022/12/30 09:45:41;;;;;;;;;;;;;;;;;;5018723;28;19941;-89
2022/12/30 09:48:08;;;;;;;;;;;;;;;;;;5172590;23;19910;-90
2022/12/30 09:50:40;;;;;;;;;;;;;;;;;;5003293;28;19930;-90
2022/12/30 09:53:18;;;;;;;;;;;;;;;;;;5284038;23;19985;-91
2022/12/30 09:55:57;;;;;;;;;;;;;;;;;;5198555;23;19910;-90
2022/12/30 10:06:29;;;;;;;;;;;;;;;;;;5024841;23;19926;-89
2022/12/30 10:11:38;;;;;;;;;;;;;;;;;;5018552;28;20371;-89
2022/12/30 10:14:05;;;;;;;;;;;;;;;;;;5003040;28;19902;-91
2022/12/30 10:16:37;;;;;;;;;;;;;;;;;;5003474;28;19914;-90
2022/12/30 10:24:28;;;;;;;;;;;;;;;;;;5379635;22;19926;-90
2022/12/30 10:26:55;;;;;;;;;;;;;;;;;;5002522;28;19902;-90
2022/12/30 10:37:42;;;;;;;;;;;;;;;;;;5037388;22;19959;-91
2022/12/30 10:40:07;;;;;;;;;;;;;;;;;;5002547;28;19937;-89
2022/12/30 10:45:07;;;;;;;;;;;;;;;;;;5748139;22;19918;-91
2022/12/30 10:47:35;;;;;;;;;;;;;;;;;;4986540;28;19905;-90
2022/12/30 10:50:01;;;;;;;;;;;;;;;;;;5018853;28;19953;-91
2022/12/30 10:52:28;;;;;;;;;;;;;;;;;;5017584;28;20393;-90
2022/12/30 10:54:54;;;;;;;;;;;;;;;;;;5019117;28;19909;-89
2022/12/30 10:59:55;;;;;;;;;;;;;;;;;;5669666;23;19961;-89
2022/12/30 11:07:45;;;;;;;;;;;;;;;;;;5300185;22;19913;-90
2022/12/30 11:18:13;;;;;;;;;;;;;;;;;;5442770;23;19914;-92
2022/12/30 11:20:44;;;;;;;;;;;;;;;;;;4984381;28;19929;-91
2022/12/30 11:36:49;;;;;;;;;;;;;;;;;;5138564;22;19925;-90
2022/12/30 11:39:15;;;;;;;;;;;;;;;;;;5001345;28;19978;-90
2022/12/30 11:44:41;;;;;;;;;;;;;;;;;;5866531;23;19989;-90
2022/12/30 11:47:30;;;;;;;;;;;;;;;;;;5017796;28;19902;-88
2022/12/30 11:52:38;;;;;;;;;;;;;;;;;;5357139;22;19910;-88
2022/12/30 11:55:14;;;;;;;;;;;;;;;;;;5002430;28;19946;-92
2022/12/30 12:00:39;;;;;;;;;;;;;;;;;;5017509;28;19909;-89
2022/12/30 12:03:08;;;;;;;;;;;;;;;;;;5643290;23;19925;-90
2022/12/30 12:05:45;;;;;;;;;;;;;;;;;;5001577;28;19977;-89
2022/12/30 12:08:20;;;;;;;;;;;;;;;;;;5002522;28;19985;-89
2022/12/30 12:10:56;;;;;;;;;;;;;;;;;;5001443;28;19918;-89
2022/12/30 12:13:30;;;;;;;;;;;;;;;;;;5017858;28;19917;-90
2022/12/30 12:18:41;;;;;;;;;;;;;;;;;;5359263;22;19930;-89
2022/12/30 12:21:09;;;;;;;;;;;;;;;;;;4985757;28;19933;-92
2022/12/30 12:23:34;;;;;;;;;;;;;;;;;;5271703;23;19925;-89
2022/12/30 12:26:00;;;;;;;;;;;;;;;;;;5036200;28;19936;-90
2022/12/30 12:28:25;;;;;;;;;;;;;;;;;;5020549;28;19921;-90
2022/12/30 12:30:51;;;;;;;;;;;;;;;;;;5019135;28;19972;-90
2022/12/30 12:35:59;;;;;;;;;;;;;;;;;;5830229;22;19922;-90
2022/12/30 12:38:26;;;;;;;;;;;;;;;;;;4982226;28;19913;-90
2022/12/30 12:40:58;;;;;;;;;;;;;;;;;;4997631;28;19968;-88
2022/12/30 12:43:26;;;;;;;;;;;;;;;;;;4983530;28;19914;-88
2022/12/30 12:45:53;;;;;;;;;;;;;;;;;;4984272;28;19930;-89
2022/12/30 12:48:20;;;;;;;;;;;;;;;;;;4987446;28;19918;-93
2022/12/30 12:50:46;;;;;;;;;;;;;;;;;;4986390;28;19929;-92
2022/12/30 12:53:11;;;;;;;;;;;;;;;;;;4974575;28;20435;-95
2022/12/30 12:55:40;;;;;;;;;;;;;;;;;;4968755;28;19914;-94
2022/12/30 12:58:05;;;;;;;;;;;;;;;;;;4970925;28;19937;-93
2022/12/30 13:05:54;;;;;;;;;;;;;;;;;;5213564;23;19910;-90
2022/12/30 13:08:19;;;;;;;;;;;;;;;;;;5021675;28;19914;-92
2022/12/30 13:10:48;;;;;;;;;;;;;;;;;;5004102;28;19918;-89
2022/12/30 13:13:20;;;;;;;;;;;;;;;;;;5005265;28;19924;-89
2022/12/30 13:15:46;;;;;;;;;;;;;;;;;;4988626;28;20360;-88
2022/12/30 13:18:12;;;;;;;;;;;;;;;;;;5004071;28;19940;-91
2022/12/30 13:20:38;;;;;;;;;;;;;;;;;;4986524;28;19933;-91
2022/12/30 13:25:45;;;;;;;;;;;;;;;;;;5354746;22;19910;-92
2022/12/30 13:28:10;;;;;;;;;;;;;;;;;;4987267;28;19913;-94
2022/12/30 13:30:36;;;;;;;;;;;;;;;;;;4973262;28;19965;-92
2022/12/30 13:33:03;;;;;;;;;;;;;;;;;;5152650;23;19971;-89
2022/12/30 13:35:29;;;;;;;;;;;;;;;;;;5062986;23;19926;-93
2022/12/30 13:37:54;;;;;;;;;;;;;;;;;;4948474;28;19914;-94
2022/12/30 13:40:20;;;;;;;;;;;;;;;;;;4945838;28;19967;-94
2022/12/30 13:42:45;;;;;;;;;;;;;;;;;;4945284;28;19985;-94
2022/12/30 13:45:11;;;;;;;;;;;;;;;;;;4946081;28;19922;-95
2022/12/30 13:47:36;;;;;;;;;;;;;;;;;;4946529;28;20005;-93
2022/12/30 13:50:02;;;;;;;;;;;;;;;;;;4948513;28;19962;-94
2022/12/30 13:52:28;;;;;;;;;;;;;;;;;;4946564;28;20109;-95
2022/12/30 13:54:54;;;;;;;;;;;;;;;;;;4945231;28;20417;-96
2022/12/30 13:57:19;;;;;;;;;;;;;;;;;;4945155;28;19915;-95
2022/12/30 13:59:45;;;;;;;;;;;;;;;;;;4944464;28;19918;-96
2022/12/30 14:02:10;;;;;;;;;;;;;;;;;;4944799;28;19921;-96
2022/12/30 14:04:35;;;;;;;;;;;;;;;;;;4944639;28;20365;-95
2022/12/30 14:07:01;;;;;;;;;;;;;;;;;;4960112;28;20339;-94
2022/12/30 14:09:26;;;;;;;;;;;;;;;;;;4944310;28;19918;-96
2022/12/30 14:11:52;;;;;;;;;;;;;;;;;;4944960;28;19924;-94
2022/12/30 14:14:17;;;;;;;;;;;;;;;;;;4945160;28;19949;-95
2022/12/30 14:16:43;;;;;;;;;;;;;;;;;;4944900;28;19918;-95
2022/12/30 14:19:08;;;;;;;;;;;;;;;;;;4945029;28;20254;-94
2022/12/30 14:21:34;;;;;;;;;;;;;;;;;;4945664;28;20383;-95
2022/12/30 14:23:59;;;;;;;;;;;;;;;;;;4944820;28;19914;-94
2022/12/30 14:26:25;;;;;;;;;;;;;;;;;;4944793;28;20008;-95
2022/12/30 14:28:50;;;;;;;;;;;;;;;;;;4945478;28;19914;-95
2022/12/30 14:31:15;;;;;;;;;;;;;;;;;;4947310;28;19924;-95
2022/12/30 14:33:41;;;;;;;;;;;;;;;;;;4952757;28;19918;-95
2022/12/30 14:36:07;;;;;;;;;;;;;;;;;;4954526;28;19921;-94
2022/12/30 14:38:32;;;;;;;;;;;;;;;;;;4959322;28;19914;-94
2022/12/30 14:40:58;;;;;;;;;;;;;;;;;;4961571;28;20000;-95
2022/12/30 14:43:26;;;;;;;;;;;;;;;;;;4966318;28;19930;-94
2022/12/30 14:46:03;;;;;;;;;;;;;;;;;;4969941;28;19909;-92
2022/12/30 14:48:29;;;;;;;;;;;;;;;;;;4966091;28;19918;-92
2022/12/30 14:50:54;;;;;;;;;;;;;;;;;;4981258;28;20033;-91
2022/12/30 14:53:20;;;;;;;;;;;;;;;;;;4965318;28;19909;-89
2022/12/30 14:55:45;;;;;;;;;;;;;;;;;;4963979;28;20006;-93
2022/12/30 14:58:11;;;;;;;;;;;;;;;;;;4959387;28;19918;-93
2022/12/30 15:00:36;;;;;;;;;;;;;;;;;;4956258;28;19923;-91
2022/12/30 15:03:02;;;;;;;;;;;;;;;;;;4962507;28;19985;-93
2022/12/30 15:05:28;;;;;;;;;;;;;;;;;;4956689;28;19914;-91
2022/12/30 15:07:54;;;;;;;;;;;;;;;;;;4956747;28;19981;-92
2022/12/30 15:10:20;;;;;;;;;;;;;;;;;;4952073;28;19910;-94
2022/12/30 15:12:45;;;;;;;;;;;;;;;;;;4960264;28;19954;-92
2022/12/30 15:15:11;;;;;;;;;;;;;;;;;;4962610;28;19929;-93
2022/12/30 15:17:36;;;;;;;;;;;;;;;;;;4965128;28;19902;-92
2022/12/30 15:20:02;;;;;;;;;;;;;;;;;;4957682;28;19922;-93
2022/12/30 15:22:27;;;;;;;;;;;;;;;;;;4961767;28;19918;-94
2022/12/30 15:24:53;;;;;;;;;;;;;;;;;;4980426;28;19933;-91
2022/12/30 15:27:19;;;;;;;;;;;;;;;;;;4964834;28;19968;-92
2022/12/30 15:29:44;;;;;;;;;;;;;;;;;;4962440;28;19906;-93
2022/12/30 15:32:10;;;;;;;;;;;;;;;;;;4963183;28;19909;-93
2022/12/30 15:34:35;;;;;;;;;;;;;;;;;;4950527;28;19929;-93
2022/12/30 15:37:01;;;;;;;;;;;;;;;;;;4956090;28;19918;-94
2022/12/30 15:39:26;;;;;;;;;;;;;;;;;;4978860;28;19925;-92
2022/12/30 15:41:52;;;;;;;;;;;;;;;;;;4963807;28;19918;-93
2022/12/30 15:44:18;;;;;;;;;;;;;;;;;;4965018;28;19925;-93
2022/12/30 15:46:43;;;;;;;;;;;;;;;;;;4964287;28;19914;-94
2022/12/30 15:49:10;;;;;;;;;;;;;;;;;;4963563;28;19914;-93
2022/12/30 15:51:35;;;;;;;;;;;;;;;;;;4965946;28;19907;-93
2022/12/30 15:54:01;;;;;;;;;;;;;;;;;;4994002;23;19916;-92
2022/12/30 15:59:21;;;;;;;;;;;;;;;;;;5315214;23;19926;-93
2022/12/30 16:01:47;;;;;;;;;;;;;;;;;;5128946;23;19925;-91
2022/12/30 16:04:13;;;;;;;;;;;;;;;;;;4984160;28;19918;-93
2022/12/30 16:06:38;;;;;;;;;;;;;;;;;;5339563;23;19980;-91
2022/12/30 16:09:04;;;;;;;;;;;;;;;;;;5021027;28;19924;-92
2022/12/30 16:11:29;;;;;;;;;;;;;;;;;;5000733;28;19981;-93
2022/12/30 16:16:36;;;;;;;;;;;;;;;;;;5148341;22;19910;-94
2022/12/30 16:19:14;;;;;;;;;;;;;;;;;;4998883;28;19924;-92
2022/12/30 16:21:39;;;;;;;;;;;;;;;;;;4992161;28;19917;-92
2022/12/30 16:24:07;;;;;;;;;;;;;;;;;;4980222;28;19920;-93
2022/12/30 16:26:35;;;;;;;;;;;;;;;;;;4992760;28;19910;-93
2022/12/30 16:29:00;;;;;;;;;;;;;;;;;;4996984;28;19925;-92
2022/12/30 16:31:39;;;;;;;;;;;;;;;;;;5000397;28;19960;-93
2022/12/30 16:34:04;;;;;;;;;;;;;;;;;;4974595;28;19937;-94
2022/12/30 16:36:32;;;;;;;;;;;;;;;;;;4974507;28;20388;-91
2022/12/30 16:38:57;;;;;;;;;;;;;;;;;;4976602;28;19921;-93
2022/12/30 16:41:23;;;;;;;;;;;;;;;;;;4969834;28;19921;-94
2022/12/30 16:43:51;;;;;;;;;;;;;;;;;;4976838;28;19921;-93
2022/12/30 16:46:17;;;;;;;;;;;;;;;;;;4978453;28;19914;-91
2022/12/30 16:48:47;;;;;;;;;;;;;;;;;;4984625;28;19917;-90
2022/12/30 16:51:12;;;;;;;;;;;;;;;;;;4984280;28;19993;-93
2022/12/30 16:53:38;;;;;;;;;;;;;;;;;;4987416;28;19921;-92
2022/12/30 16:56:03;;;;;;;;;;;;;;;;;;5000196;28;20346;-92
2022/12/30 16:58:32;;;;;;;;;;;;;;;;;;4981286;28;19918;-92
2022/12/30 17:01:00;;;;;;;;;;;;;;;;;;4999963;28;19921;-92
2022/12/30 17:03:29;;;;;;;;;;;;;;;;;;5001484;28;19909;-91
2022/12/30 17:11:46;;;;;;;;;;;;;;;;;;5337921;23;19926;-90
2022/12/30 17:14:13;;;;;;;;;;;;;;;;;;5005194;28;19909;-90
2022/12/30 17:16:45;;;;;;;;;;;;;;;;;;5004323;28;19961;-91
2022/12/30 17:19:20;;;;;;;;;;;;;;;;;;4987323;28;19909;-90
2022/12/30 17:21:48;;;;;;;;;;;;;;;;;;4988284;28;19910;-89
2022/12/30 17:24:15;;;;;;;;;;;;;;;;;;4988342;28;19906;-90
2022/12/30 17:27:02;;;;;;;;;;;;;;;;;;5078652;23;19913;-89
2022/12/30 17:29:29;;;;;;;;;;;;;;;;;;5024281;28;19913;-89
2022/12/30 17:32:04;;;;;;;;;;;;;;;;;;5317631;23;19989;-90
2022/12/30 17:34:32;;;;;;;;;;;;;;;;;;5026405;28;19905;-90
2022/12/30 17:36:58;;;;;;;;;;;;;;;;;;5027614;28;19909;-91
2022/12/30 17:50:27;;;;;;;;;;;;;;;;;;4599186;22;20669;-86
2022/12/30 17:58:24;;;;;;;;;;;;;;;;;;5425438;23;19949;-90
2022/12/30 18:44:51;;;;;;;;;;;;;;;;;;5700692;23;19994;-91
2022/12/30 20:17:49;;;;;;;;;;;;;;;;;;5466220;23;19909;-90
2022/12/30 20:28:26;;;;;;;;;;;;;;;;;;5548607;23;19910;-90
2022/12/30 20:33:45;;;;;;;;;;;;;;;;;;5299678;22;19909;-93
2022/12/30 21:04:31;;;;;;;;;;;;;;;;;;6053634;23;19948;-90
2022/12/30 21:10:10;;;;;;;;;;;;;;;;;;5526933;23;19914;-91
2022/12/30 21:29:40;;;;;;;;;;;;;;;;;;5735431;22;19914;-90
2022/12/30 21:32:50;;;;;;;;;;;;;;;;;;;;;
2022/12/30 22:09:30;;;;;;;;;;;;;;;;;;5726306;23;19909;-90
2022/12/30 22:12:17;;;;;;;;;;;;;;;;;;5463118;23;19925;-91
2022/12/30 22:15:11;;;;;;;;;;;;;;;;;;5045757;28;19905;-88
2022/12/30 22:20:30;;;;;;;;;;;;;;;;;;5122937;22;19909;-90
2022/12/30 22:23:18;;;;;;;;;;;;;;;;;;5006277;28;19956;-91
2022/12/30 22:26:02;;;;;;;;;;;;;;;;;;5005492;28;19918;-91
2022/12/30 22:31:41;;;;;;;;;;;;;;;;;;5929517;22;20001;-89
2022/12/30 22:43:02;;;;;;;;;;;;;;;;;;5003161;28;19910;-90
2022/12/30 23:02:23;;;;;;;;;;;;;;;;;;5097761;22;19933;-91
2022/12/30 23:05:21;;;;;;;;;;;;;;;;;;5643280;23;19916;-91
2022/12/30 23:21:20;;;;;;;;;;;;;;;;;;5029346;22;19910;-91
2022/12/30 23:26:48;;;;;;;;;;;;;;;;;;5002998;28;19924;-91
2022/12/30 23:32:22;;;;;;;;;;;;;;;;;;5228137;23;19917;-89
2022/12/30 23:38:06;;;;;;;;;;;;;;;;;;4980947;28;19933;-90
2022/12/30 23:43:24;;;;;;;;;;;;;;;;;;5024527;23;19930;-93
2022/12/30 23:45:57;;;;;;;;;;;;;;;;;;4968253;28;19961;-94
2022/12/30 23:48:25;;;;;;;;;;;;;;;;;;4976967;28;19913;-92
2022/12/30 23:50:51;;;;;;;;;;;;;;;;;;4970639;28;19920;-93
2022/12/30 23:53:16;;;;;;;;;;;;;;;;;;4977810;28;19902;-91
2022/12/30 23:55:42;;;;;;;;;;;;;;;;;;5765480;22;20992;-90
2022/12/30 23:58:08;;;;;;;;;;;;;;;;;;4985977;28;20004;-88
